Time;durP1;ratioP1;P1;durP2;ratioP2;P2;SDS_P1;SDS_P2;PMS_P1;PMS_P2;Temp;Humidity;BMP_temperature;BMP_pressure;BME280_temperature;BME280_humidity;BME280_pressure;Samples;Min_cycle;Max_cycle;Signal;HPM_P1;HPM_P2
2021/10/16 00:01:52;;;;;;;19.75;8.75;;;;;;;9.44;79.04;100178.47;1758425;81;26039;-60
2021/10/16 00:04:18;;;;;;;14.40;8.15;;;;;;;9.43;79.05;100179.02;1758449;81;25445;-61
2021/10/16 00:06:45;;;;;;;13.72;8.13;;;;;;;9.45;79.06;100176.81;1758364;81;25514;-55
2021/10/16 00:09:12;;;;;;;13.70;8.20;;;;;;;9.44;79.10;100179.81;1758402;81;25619;-55
2021/10/16 00:11:39;;;;;;;14.18;9.30;;;;;;;9.44;79.24;100181.95;1758460;81;27541;-53
2021/10/16 00:14:05;;;;;;;15.70;8.30;;;;;;;9.47;79.41;100180.00;1758295;81;25533;-55
2021/10/16 00:16:32;;;;;;;15.98;7.75;;;;;;;9.50;79.22;100173.18;1758359;81;25406;-54
2021/10/16 00:18:59;;;;;;;13.18;8.28;;;;;;;9.52;79.06;100174.48;1758361;81;25549;-59
2021/10/16 00:21:25;;;;;;;12.55;7.67;;;;;;;9.55;78.99;100177.11;1758451;81;25490;-61
2021/10/16 00:23:52;;;;;;;14.35;7.87;;;;;;;9.58;79.01;100173.02;1758416;81;27487;-60
2021/10/16 00:26:18;;;;;;;18.82;8.20;;;;;;;9.60;78.94;100164.84;1758348;81;25676;-61
2021/10/16 00:28:45;;;;;;;13.93;7.97;;;;;;;9.59;78.84;100168.67;1758411;81;25509;-61
2021/10/16 00:31:11;;;;;;;16.67;7.97;;;;;;;9.59;78.83;100172.72;1758403;81;25999;-60
2021/10/16 00:33:38;;;;;;;12.25;7.83;;;;;;;9.57;78.82;100166.83;1758463;81;25520;-60
2021/10/16 00:36:05;;;;;;;19.30;9.55;;;;;;;9.55;78.92;100173.06;1758444;81;27499;-60
2021/10/16 00:38:31;;;;;;;13.58;7.78;;;;;;;9.51;79.01;100175.58;1758288;81;25810;-61
2021/10/16 00:40:58;;;;;;;15.60;8.53;;;;;;;9.50;78.79;100181.28;1758386;81;25603;-62
2021/10/16 00:43:24;;;;;;;12.13;7.83;;;;;;;9.48;79.03;100178.09;1758337;81;25689;-61
2021/10/16 00:45:51;;;;;;;15.00;7.47;;;;;;;9.47;78.96;100185.95;1758400;81;25572;-62
2021/10/16 00:48:18;;;;;;;13.68;7.47;;;;;;;9.49;79.02;100183.75;1758405;81;28026;-61
2021/10/16 00:50:44;;;;;;;11.57;7.28;;;;;;;9.49;79.02;100185.10;1758301;81;25603;-61
2021/10/16 00:53:12;;;;;;;16.90;7.55;;;;;;;9.46;79.01;100190.54;1758415;81;25498;-60
2021/10/16 00:55:40;;;;;;;11.33;7.55;;;;;;;9.45;79.01;100190.31;1758378;81;25615;-61
2021/10/16 00:58:07;;;;;;;15.90;6.97;;;;;;;9.44;79.09;100190.05;1763730;80;25607;-60
2021/10/16 01:00:33;;;;;;;15.15;7.15;;;;;;;9.42;79.10;100192.82;1786626;80;27475;-61
2021/10/16 01:03:02;;;;;;;15.38;7.37;;;;;;;9.41;79.21;100194.70;1786488;80;25494;-61
2021/10/16 01:05:28;;;;;;;13.72;7.25;;;;;;;9.42;79.26;100191.47;1786596;80;25492;-61
2021/10/16 01:07:55;;;;;;;12.88;6.75;;;;;;;9.41;79.33;100188.52;1786572;80;26140;-61
2021/10/16 01:10:21;;;;;;;13.35;6.83;;;;;;;9.42;79.41;100192.82;1786600;80;25673;-61
2021/10/16 01:12:50;;;;;;;13.28;6.60;;;;;;;9.41;79.55;100194.70;1786583;80;27664;-61
2021/10/16 01:15:17;;;;;;;11.30;6.58;;;;;;;9.39;79.62;100196.13;1786775;80;25690;-59
2021/10/16 01:17:48;;;;;;;14.75;7.12;;;;;;;9.38;79.59;100198.03;1786590;80;25472;-59
2021/10/16 01:20:20;;;;;;;13.83;6.62;;;;;;;9.36;79.79;100198.86;1786721;80;26311;-59
2021/10/16 01:22:51;;;;;;;12.73;6.85;;;;;;;9.39;79.78;100201.52;1786544;80;25647;-59
2021/10/16 01:25:21;;;;;;;10.18;6.67;;;;;;;9.38;79.87;100199.38;1785659;80;27818;-60
2021/10/16 01:27:49;;;;;;;18.32;7.12;;;;;;;9.38;80.04;100195.33;1786019;80;25933;-60
2021/10/16 01:30:20;;;;;;;16.20;8.13;;;;;;;9.38;80.16;100195.86;1786741;80;25582;-59
2021/10/16 01:32:48;;;;;;;12.28;6.95;;;;;;;9.36;80.15;100194.81;1786702;80;25524;-60
2021/10/16 01:35:15;;;;;;;12.80;7.12;;;;;;;9.36;80.23;100190.77;1786777;80;25467;-60
2021/10/16 01:37:46;;;;;;;17.17;8.00;;;;;;;9.37;80.19;100193.72;1786700;80;27522;-60
2021/10/16 01:40:13;;;;;;;17.65;8.38;;;;;;;9.37;80.33;100193.72;1786643;80;25514;-60
2021/10/16 01:42:44;;;;;;;14.83;7.35;;;;;;;9.38;80.45;100193.98;1786745;80;25488;-60
2021/10/16 01:45:17;;;;;;;15.03;6.62;;;;;;;9.37;80.48;100194.28;1786748;80;25685;-60
2021/10/16 01:47:53;;;;;;;13.35;7.28;;;;;;;9.35;80.55;100195.38;1786751;80;25475;-61
2021/10/16 01:50:21;;;;;;;16.37;7.47;;;;;;;9.37;80.52;100207.78;1786788;80;27510;-60
2021/10/16 01:52:48;;;;;;;13.83;7.23;;;;;;;9.39;80.61;100203.66;1786895;80;25696;-61
2021/10/16 01:55:15;;;;;;;15.20;7.12;;;;;;;9.38;80.63;100214.23;1786732;80;25638;-60
2021/10/16 01:57:42;;;;;;;14.50;7.20;;;;;;;9.38;80.54;100212.06;1786633;80;25607;-60
2021/10/16 02:00:11;;;;;;;11.45;6.30;;;;;;;9.37;80.59;100206.43;1792062;80;25525;-61
2021/10/16 02:02:38;;;;;;;12.73;6.75;;;;;;;9.36;80.57;100212.36;1792718;80;27474;-61
2021/10/16 02:05:07;;;;;;;14.50;7.65;;;;;;;9.36;80.61;100209.66;1792500;80;25520;-61
2021/10/16 02:07:34;;;;;;;16.40;6.95;;;;;;;9.37;80.67;100210.48;1792700;80;25560;-59
2021/10/16 02:10:01;;;;;;;17.07;7.10;;;;;;;9.38;80.68;100218.28;1792601;80;26369;-60
2021/10/16 02:12:27;;;;;;;17.17;7.67;;;;;;;9.37;80.66;100222.63;1792698;80;25480;-59
2021/10/16 02:14:54;;;;;;;11.38;6.83;;;;;;;9.37;80.66;100221.27;1792568;80;27489;-59
2021/10/16 02:17:21;;;;;;;13.83;7.62;;;;;;;9.36;80.67;100223.16;1792442;80;25785;-59
2021/10/16 02:19:48;;;;;;;15.40;7.70;;;;;;;9.36;80.61;100225.86;1792575;80;25515;-59
2021/10/16 02:22:15;;;;;;;14.20;7.53;;;;;;;9.37;80.67;100228.02;1792550;80;25521;-59
2021/10/16 02:24:41;;;;;;;12.50;7.62;;;;;;;9.35;80.72;100237.21;1792619;80;25627;-59
2021/10/16 02:27:08;;;;;;;15.50;8.05;;;;;;;9.33;80.73;100239.95;1792575;80;28129;-59
2021/10/16 02:29:35;;;;;;;19.67;8.05;;;;;;;9.31;80.72;100237.58;1792478;80;25633;-59
2021/10/16 02:32:01;;;;;;;16.70;7.67;;;;;;;9.30;80.70;100237.31;1792654;80;25604;-59
2021/10/16 02:34:28;;;;;;;20.17;8.10;;;;;;;9.29;80.83;100238.41;1792497;80;25584;-59
2021/10/16 02:36:55;;;;;;;13.43;7.28;;;;;;;9.28;80.75;100251.67;1792593;80;25472;-59
2021/10/16 02:39:42;;;;;;;16.37;8.23;;;;;;;9.28;80.90;100246.80;1793575;79;25934;-59
2021/10/16 02:42:09;;;;;;;16.57;7.62;;;;;;;9.26;80.78;100247.13;1804997;79;25451;-59
2021/10/16 02:44:36;;;;;;;15.72;7.12;;;;;;;9.26;80.96;100252.53;1805076;79;25464;-59
2021/10/16 02:47:02;;;;;;;14.47;6.45;;;;;;;9.23;80.66;100254.47;1805037;79;25528;-59
2021/10/16 02:49:29;;;;;;;14.00;7.25;;;;;;;9.20;80.85;100253.72;1805102;79;25540;-59
2021/10/16 02:51:56;;;;;;;13.35;6.97;;;;;;;9.19;80.68;100254.80;1805061;79;28079;-59
2021/10/16 02:54:22;;;;;;;14.70;6.58;;;;;;;9.17;80.68;100265.11;1804989;79;25747;-59
2021/10/16 02:56:49;;;;;;;15.32;6.08;;;;;;;9.14;80.73;100262.47;1805069;79;25516;-59
2021/10/16 02:59:16;;;;;;;12.95;6.37;;;;;;;9.15;80.74;100268.66;1805008;79;25547;-60
2021/10/16 03:01:42;;;;;;;14.35;5.97;;;;;;;9.15;80.77;100265.97;1805090;79;25494;-59
2021/10/16 03:04:09;;;;;;;16.20;6.55;;;;;;;9.15;80.78;100261.92;1805049;79;27463;-59
2021/10/16 03:06:36;;;;;;;16.97;6.62;;;;;;;9.14;80.85;100268.40;1804961;79;25512;-59
2021/10/16 03:09:03;;;;;;;14.63;7.12;;;;;;;9.13;80.80;100276.27;1805013;79;25463;-59
2021/10/16 03:11:29;;;;;;;15.60;6.00;;;;;;;9.12;80.84;100266.56;1805006;79;26006;-59
2021/10/16 03:13:59;;;;;;;15.08;6.17;;;;;;;9.12;80.89;100270.05;1805081;79;25453;-59
2021/10/16 03:16:25;;;;;;;15.23;6.05;;;;;;;9.14;80.90;100276.50;1805197;79;27460;-59
2021/10/16 03:18:53;;;;;;;12.00;6.30;;;;;;;9.13;80.89;100278.96;1804935;79;25504;-60
2021/10/16 03:21:21;;;;;;;12.20;5.62;;;;;;;9.13;80.87;100274.91;1805057;79;25526;-60
2021/10/16 03:23:48;;;;;;;11.45;5.42;;;;;;;9.13;80.92;100278.41;1805012;79;25471;-60
2021/10/16 03:26:14;;;;;;;12.18;6.17;;;;;;;9.14;80.83;100282.71;1805081;79;25475;-59
2021/10/16 03:28:41;;;;;;;17.25;5.72;;;;;;;9.16;80.92;100287.25;1805030;79;27458;-60
2021/10/16 03:31:07;;;;;;;15.53;6.10;;;;;;;9.18;80.94;100295.59;1804946;79;25463;-60
2021/10/16 03:33:34;;;;;;;13.28;5.83;;;;;;;9.18;80.78;100299.63;1805013;79;25470;-60
2021/10/16 03:36:01;;;;;;;15.35;5.50;;;;;;;9.18;80.73;100299.63;1804992;79;25522;-59
2021/10/16 03:38:27;;;;;;;13.03;6.05;;;;;;;9.19;80.74;100302.59;1801403;79;25536;-60
2021/10/16 03:40:54;;;;;;;15.35;5.47;;;;;;;9.20;80.82;100300.16;1796510;79;27439;-61
2021/10/16 03:43:20;;;;;;;11.12;5.60;;;;;;;9.19;80.68;100306.08;1796487;79;25734;-60
2021/10/16 03:45:47;;;;;;;10.95;5.40;;;;;;;9.19;80.70;100308.78;1796568;79;25485;-60
2021/10/16 03:48:14;;;;;;;15.75;6.37;;;;;;;9.19;80.71;100309.34;1796519;79;25459;-59
2021/10/16 03:50:41;;;;;;;12.82;5.80;;;;;;;9.19;80.83;100307.98;1796581;79;25456;-60
2021/10/16 03:53:07;;;;;;;12.45;5.78;;;;;;;9.19;80.65;100315.53;1796576;79;27457;-60
2021/10/16 03:55:34;;;;;;;16.20;5.87;;;;;;;9.19;80.70;100316.09;1796493;79;25580;-60
2021/10/16 03:58:01;;;;;;;11.38;5.28;;;;;;;9.20;80.71;100310.95;1796511;79;25464;-60
2021/10/16 04:00:27;;;;;;;12.93;5.72;;;;;;;9.21;80.63;100314.70;1796508;79;25525;-60
2021/10/16 04:02:57;;;;;;;14.63;6.37;;;;;;;9.22;80.65;100316.84;1796563;79;25536;-60
2021/10/16 04:05:23;;;;;;;15.95;7.20;;;;;;;9.22;80.67;100320.33;1796186;79;27461;-59
2021/10/16 04:07:49;;;;;;;16.62;6.47;;;;;;;9.23;80.61;100315.73;1796450;79;25504;-59
2021/10/16 04:10:16;;;;;;;14.35;6.47;;;;;;;9.21;80.55;100312.53;1796502;79;25520;-60
2021/10/16 04:12:42;;;;;;;15.88;6.40;;;;;;;9.20;80.50;100313.09;1796513;79;26101;-60
2021/10/16 04:15:09;;;;;;;15.08;6.72;;;;;;;9.20;80.53;100311.74;1796567;79;25544;-59
2021/10/16 04:17:36;;;;;;;14.10;7.55;;;;;;;9.20;80.58;100311.74;1796529;79;27601;-60
2021/10/16 04:20:04;;;;;;;15.13;6.95;;;;;;;9.18;80.60;100315.83;1796402;79;25779;-59
2021/10/16 04:22:31;;;;;;;10.98;7.00;;;;;;;9.16;80.65;100318.84;1796540;79;25438;-60
2021/10/16 04:24:58;;;;;;;14.60;6.80;;;;;;;9.15;80.72;100319.38;1796489;79;25541;-60
2021/10/16 04:27:25;;;;;;;19.98;7.72;;;;;;;9.15;80.59;100323.42;1765502;79;25554;-60
2021/10/16 04:29:51;;;;;;;13.45;7.53;;;;;;;9.15;80.59;100323.42;1796529;79;27451;-59
2021/10/16 04:32:19;;;;;;;12.90;7.47;;;;;;;9.14;80.57;100318.32;1796408;79;25741;-59
2021/10/16 04:34:46;;;;;;;16.73;8.03;;;;;;;9.13;80.67;100321.58;1796525;79;25517;-59
2021/10/16 04:37:14;;;;;;;16.12;8.35;;;;;;;9.12;80.74;100318.62;1796467;79;25543;-59
2021/10/16 04:39:41;;;;;;;16.35;7.00;;;;;;;9.11;80.54;100314.89;1771238;79;25445;-60
2021/10/16 04:42:11;;;;;;;19.42;7.72;;;;;;;9.08;80.53;100317.63;1764507;80;27552;-60
2021/10/16 04:44:37;;;;;;;12.47;7.03;;;;;;;9.07;80.62;100320.06;1764444;80;25762;-60
2021/10/16 04:47:05;;;;;;;17.15;8.25;;;;;;;9.08;80.58;100328.98;1764502;81;25517;-59
2021/10/16 04:49:32;;;;;;;17.65;7.92;;;;;;;9.08;80.54;100332.47;1764470;81;26097;-59
2021/10/16 04:51:59;;;;;;;13.48;7.92;;;;;;;9.07;80.49;100328.16;1764523;81;25473;-60
2021/10/16 04:54:26;;;;;;;16.12;7.70;;;;;;;9.06;80.45;100327.92;1764513;81;27459;-59
2021/10/16 04:56:52;;;;;;;17.87;6.97;;;;;;;9.07;80.51;100333.55;1764527;81;25509;-60
2021/10/16 04:59:19;;;;;;;17.12;6.92;;;;;;;9.07;80.43;100334.11;1764493;81;25502;-59
2021/10/16 05:01:46;;;;;;;18.48;7.42;;;;;;;9.08;80.40;100333.81;1764469;81;26058;-59
2021/10/16 05:04:12;;;;;;;12.73;6.75;;;;;;;9.08;80.31;100332.47;1764527;81;25461;-60
2021/10/16 05:06:39;;;;;;;16.40;6.85;;;;;;;9.08;80.31;100337.08;1764569;81;28029;-59
2021/10/16 05:09:05;;;;;;;13.20;7.00;;;;;;;9.07;80.27;100339.51;1764396;81;25746;-60
2021/10/16 05:11:32;;;;;;;20.77;7.35;;;;;;;9.07;80.24;100336.25;1764511;81;25524;-60
2021/10/16 05:13:59;;;;;;;12.50;6.20;;;;;;;9.06;80.09;100336.55;1764466;81;25468;-60
2021/10/16 05:16:25;;;;;;;13.55;6.37;;;;;;;9.06;80.18;100333.84;1764567;81;25544;-60
2021/10/16 05:18:52;;;;;;;17.12;6.75;;;;;;;9.05;80.06;100348.45;1764488;81;27437;-60
2021/10/16 05:21:18;;;;;;;13.55;6.90;;;;;;;9.05;80.05;100349.24;1764423;81;25452;-59
2021/10/16 05:23:45;;;;;;;13.40;6.10;;;;;;;9.06;79.98;100356.78;1764498;81;25504;-59
2021/10/16 05:26:11;;;;;;;15.65;7.03;;;;;;;9.07;80.05;100356.48;1764467;81;25461;-59
2021/10/16 05:28:38;;;;;;;13.68;6.70;;;;;;;9.11;80.01;100358.07;1764528;81;25457;-60
2021/10/16 05:31:05;;;;;;;12.98;6.22;;;;;;;9.11;79.98;100364.81;1764520;81;28070;-60
2021/10/16 05:33:31;;;;;;;17.60;6.28;;;;;;;9.12;79.92;100361.00;1764436;81;25454;-59
2021/10/16 05:35:58;;;;;;;14.18;6.90;;;;;;;9.12;79.79;100363.70;1764499;80;25540;-59
2021/10/16 05:38:26;;;;;;;11.10;5.55;;;;;;;9.13;79.79;100376.11;1766874;80;25535;-59
2021/10/16 05:40:53;;;;;;;13.80;5.70;;;;;;;9.13;79.73;100374.20;1786410;80;25570;-59
2021/10/16 05:43:19;;;;;;;15.32;5.80;;;;;;;9.15;79.72;100384.70;1786411;80;28147;-59
2021/10/16 05:45:46;;;;;;;11.43;6.05;;;;;;;9.14;79.49;100375.81;1786341;80;25463;-59
2021/10/16 05:48:13;;;;;;;16.05;6.15;;;;;;;9.16;79.62;100383.62;1786406;80;25495;-59
2021/10/16 05:50:40;;;;;;;9.00;5.92;;;;;;;9.14;79.40;100392.01;1786383;80;25474;-59
2021/10/16 05:53:06;;;;;;;17.02;5.72;;;;;;;9.16;79.45;100386.31;1786451;80;25564;-59
2021/10/16 05:55:33;;;;;;;16.85;5.75;;;;;;;9.18;79.45;100388.69;1786440;80;27498;-59
2021/10/16 05:57:59;;;;;;;12.78;5.90;;;;;;;9.17;79.31;100394.64;1786345;80;25665;-59
2021/10/16 06:00:26;;;;;;;18.25;6.05;;;;;;;9.18;79.41;100397.61;1786395;80;25474;-60
2021/10/16 06:02:52;;;;;;;11.83;6.53;;;;;;;9.17;79.33;100393.30;1786367;80;26117;-62
2021/10/16 06:05:19;;;;;;;17.12;5.87;;;;;;;9.18;79.30;100406.23;1786621;80;25467;-60
2021/10/16 06:07:46;;;;;;;11.83;5.92;;;;;;;9.20;79.43;100403.50;1786598;80;27448;-58
2021/10/16 06:10:13;;;;;;;17.70;5.87;;;;;;;9.22;79.41;100406.70;1786432;80;25769;-58
2021/10/16 06:12:40;;;;;;;13.13;5.60;;;;;;;9.24;79.23;100407.20;1786568;80;25543;-58
2021/10/16 06:15:07;;;;;;;14.93;5.42;;;;;;;9.26;79.24;100410.95;1786527;80;26092;-58
2021/10/16 06:17:34;;;;;;;10.95;4.95;;;;;;;9.26;78.83;100410.42;1786581;80;25518;-59
2021/10/16 06:20:01;;;;;;;10.60;4.75;;;;;;;9.24;78.74;100422.59;1786530;80;27559;-60
2021/10/16 06:22:28;;;;;;;16.02;5.72;;;;;;;9.27;78.84;100422.80;1786470;80;25866;-60
2021/10/16 06:24:54;;;;;;;11.43;4.72;;;;;;;9.28;78.66;100418.20;1786544;80;25451;-60
2021/10/16 06:27:21;;;;;;;11.78;5.17;;;;;;;9.26;78.49;100423.92;1786501;80;26262;-60
2021/10/16 06:29:47;;;;;;;9.90;5.12;;;;;;;9.27;78.08;100431.46;1786548;80;25464;-60
2021/10/16 06:32:14;;;;;;;14.28;4.90;;;;;;;9.26;77.96;100431.19;1786525;80;28436;-60
2021/10/16 06:34:40;;;;;;;12.82;4.55;;;;;;;9.26;77.95;100436.06;1786444;80;25873;-60
2021/10/16 06:37:07;;;;;;;11.18;3.67;;;;;;;9.29;77.61;100436.01;1786543;80;25509;-59
2021/10/16 06:39:34;;;;;;;13.65;3.95;;;;;;;9.27;77.56;100434.95;1776434;79;25525;-58
2021/10/16 06:42:01;;;;;;;8.18;3.77;;;;;;;9.30;77.39;100449.77;1764618;81;25453;-59
2021/10/16 06:44:27;;;;;;;12.60;4.20;;;;;;;9.31;77.42;100447.30;1764590;81;27493;-59
2021/10/16 06:46:54;;;;;;;10.88;4.08;;;;;;;9.32;77.32;100448.36;1764525;81;25430;-59
2021/10/16 06:49:20;;;;;;;9.83;4.28;;;;;;;9.33;77.40;100451.85;1764601;81;25525;-59
2021/10/16 06:51:47;;;;;;;10.23;3.65;;;;;;;9.35;77.38;100457.22;1764566;81;25503;-59
2021/10/16 06:54:14;;;;;;;13.40;4.50;;;;;;;9.36;77.42;100460.71;1764637;81;25473;-58
2021/10/16 06:56:40;;;;;;;16.23;5.70;;;;;;;9.38;77.54;100463.12;1764593;81;27634;-59
2021/10/16 06:59:07;;;;;;;8.40;4.15;;;;;;;9.38;77.37;100453.67;1764491;81;25466;-59
2021/10/16 07:01:34;;;;;;;9.78;4.72;;;;;;;9.39;77.43;100461.47;1764588;81;25458;-60
2021/10/16 07:04:00;;;;;;;11.57;4.90;;;;;;;9.42;77.63;100467.63;1764555;81;26256;-60
2021/10/16 07:06:27;;;;;;;17.87;7.65;;;;;;;9.45;77.57;100469.75;1772777;80;25567;-58
2021/10/16 07:08:53;;;;;;;16.02;6.05;;;;;;;9.47;77.60;100472.95;1764542;81;27470;-59
2021/10/16 07:11:20;;;;;;;12.98;6.00;;;;;;;9.50;77.79;100479.64;1764494;81;25458;-59
2021/10/16 07:13:46;;;;;;;12.37;6.62;;;;;;;9.51;77.79;100479.34;1764576;81;25442;-58
2021/10/16 07:16:13;;;;;;;16.70;4.97;;;;;;;9.53;77.83;100487.16;1764530;81;26079;-59
2021/10/16 07:18:40;;;;;;;14.75;5.25;;;;;;;9.56;77.93;100487.12;1764561;81;25513;-59
2021/10/16 07:21:06;;;;;;;12.43;5.17;;;;;;;9.56;77.59;100492.52;1764570;81;27452;-60
2021/10/16 07:23:33;;;;;;;19.00;4.65;;;;;;;9.56;77.57;100493.88;1764479;81;25466;-60
2021/10/16 07:26:00;;;;;;;12.70;4.97;;;;;;;9.59;77.69;100495.42;1764556;81;25469;-60
2021/10/16 07:28:27;;;;;;;12.68;4.72;;;;;;;9.63;77.52;100501.82;1764518;81;25473;-60
2021/10/16 07:30:53;;;;;;;12.75;4.30;;;;;;;9.64;77.40;100495.34;1764602;81;25457;-60
2021/10/16 07:33:20;;;;;;;10.55;4.15;;;;;;;9.67;77.20;100503.38;1764555;80;28077;-60
2021/10/16 07:35:47;;;;;;;13.85;4.30;;;;;;;9.67;76.85;100504.20;1764471;81;25557;-59
2021/10/16 07:38:14;;;;;;;11.48;4.08;;;;;;;9.66;76.74;100509.34;1764540;81;25098;-60
2021/10/16 07:40:41;;;;;;;17.92;4.40;;;;;;;9.69;76.90;100507.95;1781203;79;26034;-60
2021/10/16 07:43:08;;;;;;;10.72;3.72;;;;;;;9.73;76.74;100504.34;1786498;80;25435;-60
2021/10/16 07:45:35;;;;;;;9.55;3.40;;;;;;;9.75;76.44;100515.41;1786470;80;28130;-60
2021/10/16 07:48:02;;;;;;;21.93;4.10;;;;;;;9.78;76.32;100522.92;1786396;80;25487;-60
2021/10/16 07:50:29;;;;;;;17.00;3.95;;;;;;;9.78;76.07;100521.57;1786469;80;25447;-59
2021/10/16 07:52:55;;;;;;;15.20;4.37;;;;;;;9.79;75.92;100523.16;1786432;80;26021;-60
2021/10/16 07:55:22;;;;;;;12.55;4.78;;;;;;;9.79;75.92;100523.16;1786519;80;25444;-58
2021/10/16 07:57:49;;;;;;;19.35;5.22;;;;;;;9.81;75.67;100527.73;1786488;80;27430;-60
2021/10/16 08:00:15;;;;;;;11.35;3.72;;;;;;;9.83;75.70;100529.03;1786392;80;25443;-60
2021/10/16 08:02:42;;;;;;;15.80;4.92;;;;;;;9.86;75.74;100532.48;1786489;80;25441;-60
2021/10/16 08:05:13;;;;;;;15.50;4.22;;;;;;;9.88;75.36;100523.53;1786429;80;25453;-59
2021/10/16 08:07:37;;;;;;;17.90;5.72;;;;;;;9.91;75.34;100531.60;1785928;80;25446;-58
2021/10/16 08:10:05;;;;;;;13.35;4.75;;;;;;;9.98;75.55;100531.22;1786446;80;28084;-58
2021/10/16 08:12:31;;;;;;;16.62;5.53;;;;;;;10.02;75.52;100530.86;1786368;80;25439;-60
2021/10/16 08:14:58;;;;;;;17.27;5.95;;;;;;;10.14;75.62;100536.56;1786467;80;25512;-60
2021/10/16 08:17:24;;;;;;;18.30;5.15;;;;;;;10.23;75.78;100532.08;1786433;80;25571;-60
2021/10/16 08:19:51;;;;;;;11.30;5.50;;;;;;;10.34;75.42;100534.05;1786447;80;25474;-57
2021/10/16 08:22:18;;;;;;;17.27;5.45;;;;;;;10.44;75.29;100537.89;1786472;80;27435;-60
2021/10/16 08:24:46;;;;;;;13.08;4.97;;;;;;;10.50;74.55;100532.37;1786371;80;25470;-58
2021/10/16 08:27:12;;;;;;;12.95;4.42;;;;;;;10.51;73.91;100535.34;1786407;80;25495;-59
2021/10/16 08:29:39;;;;;;;17.62;5.08;;;;;;;10.51;73.73;100532.08;1786410;80;26168;-59
2021/10/16 08:32:06;;;;;;;14.20;4.35;;;;;;;10.52;73.79;100540.45;1786490;80;25503;-60
2021/10/16 08:34:33;;;;;;;13.48;5.62;;;;;;;10.57;73.74;100540.34;1760003;80;27401;-59
2021/10/16 08:37:00;;;;;;;15.95;5.35;;;;;;;10.61;73.76;100539.98;1786349;80;25428;-59
2021/10/16 08:39:27;;;;;;;17.10;5.35;;;;;;;10.64;73.68;100541.27;1787435;79;25662;-59
2021/10/16 08:41:56;;;;;;;17.32;4.97;;;;;;;10.73;73.77;100540.02;1796512;79;25490;-59
2021/10/16 08:44:28;;;;;;;17.37;6.33;;;;;;;10.78;73.89;100544.77;1796543;79;25445;-59
2021/10/16 08:46:56;;;;;;;13.75;6.03;;;;;;;10.92;74.16;100545.28;1794123;79;27647;-59
2021/10/16 08:49:24;;;;;;;14.15;5.97;;;;;;;10.99;73.40;100546.45;1796426;79;25492;-60
2021/10/16 08:51:51;;;;;;;15.15;5.25;;;;;;;11.18;72.84;100553.05;1796522;79;25505;-60
2021/10/16 08:54:17;;;;;;;11.75;4.75;;;;;;;11.33;73.71;100558.67;1796459;79;25513;-58
2021/10/16 08:56:44;;;;;;;11.35;5.53;;;;;;;11.43;72.49;100555.48;1796529;79;25461;-59
2021/10/16 08:59:10;;;;;;;19.32;6.87;;;;;;;11.56;72.48;100553.24;1796468;79;27529;-56
2021/10/16 09:02:00;;;;;;;19.95;5.10;;;;;;;11.71;72.74;100556.95;1796435;79;25552;-59
2021/10/16 09:04:27;;;;;;;19.52;6.83;;;;;;;11.81;71.17;100559.14;1795587;79;25539;-58
2021/10/16 09:06:54;;;;;;;15.38;4.62;;;;;;;11.89;71.50;100559.75;1796487;79;26259;-57
2021/10/16 09:09:30;;;;;;;11.63;3.92;;;;;;;11.94;70.47;100564.50;1796510;79;25501;-58
2021/10/16 09:11:57;;;;;;;15.28;5.83;;;;;;;11.92;69.72;100574.86;1796508;79;27494;-57
2021/10/16 09:14:28;;;;;;;11.83;4.45;;;;;;;11.93;70.13;100568.87;1796421;79;25539;-57
2021/10/16 09:16:59;;;;;;;11.75;3.70;;;;;;;12.23;70.31;100571.91;1796553;79;25449;-58
2021/10/16 09:19:32;;;;;;;13.78;3.80;;;;;;;12.36;68.84;100571.53;1796483;79;25520;-57
2021/10/16 09:22:08;;;;;;;13.45;4.10;;;;;;;12.36;68.54;100578.31;1796583;79;25443;-57
2021/10/16 09:24:44;;;;;;;10.48;3.58;;;;;;;12.37;68.21;100573.94;1796539;79;27520;-57
2021/10/16 09:27:20;;;;;;;13.25;3.77;;;;;;;12.59;69.16;100575.76;1796488;79;25510;-57
2021/10/16 09:29:50;;;;;;;9.40;3.50;;;;;;;12.81;67.21;100580.27;1796536;79;25521;-57
2021/10/16 09:32:22;;;;;;;17.95;3.47;;;;;;;12.89;67.44;100584.13;1791909;79;26220;-57
2021/10/16 09:34:59;;;;;;;11.55;3.50;;;;;;;12.92;66.72;100582.69;1796563;79;25457;-57
2021/10/16 09:37:25;;;;;;;12.33;3.92;;;;;;;12.91;66.63;100588.68;1796520;79;28069;-58
2021/10/16 09:39:58;;;;;;;14.63;3.67;;;;;;;12.84;65.54;100593.79;1791798;79;25448;-57
2021/10/16 09:42:40;;;;;;;14.45;3.98;;;;;;;12.76;65.69;100583.14;1764661;81;25439;-58
2021/10/16 09:45:08;;;;;;;11.60;3.58;;;;;;;12.75;66.12;100589.67;1764556;80;25513;-58
2021/10/16 09:47:35;;;;;;;15.28;3.65;;;;;;;12.80;66.04;100595.52;1764789;80;25502;-57
2021/10/16 09:50:09;;;;;;;18.55;5.03;;;;;;;12.83;65.51;100601.11;1764649;81;27553;-55
2021/10/16 09:52:42;;;;;;;14.45;3.35;;;;;;;12.87;64.66;100601.27;1764584;80;25513;-58
2021/10/16 09:55:12;;;;;;;10.48;3.85;;;;;;;12.75;64.73;100595.09;1764674;81;25462;-57
2021/10/16 09:57:45;;;;;;;11.68;3.52;;;;;;;12.81;65.92;100602.56;1764639;81;25507;-57
2021/10/16 10:00:14;;;;;;;13.60;3.52;;;;;;;12.93;65.39;100600.59;1764644;80;25414;-58
2021/10/16 10:02:50;;;;;;;9.45;3.33;;;;;;;12.95;64.36;100595.06;1764626;80;27514;-57
2021/10/16 10:07:22;;;;;;;10.10;3.67;;;;;;;12.83;63.38;100604.39;1867510;76;31881;-58
2021/10/16 10:09:49;;;;;;;12.90;3.62;;;;;;;12.71;63.92;100603.64;1756235;81;26538;-54
2021/10/16 10:12:17;;;;;;;14.38;4.17;;;;;;;12.68;63.77;100601.02;1770265;81;27826;-56
2021/10/16 10:14:48;;;;;;;8.58;3.37;;;;;;;12.67;64.10;100602.13;1756141;81;25672;-56
2021/10/16 10:17:19;;;;;;;12.47;3.70;;;;;;;12.67;64.13;100599.41;1775615;80;25533;-56
2021/10/16 10:19:54;;;;;;;15.60;3.50;;;;;;;12.71;64.21;100605.79;1776304;80;25535;-56
2021/10/16 10:22:22;;;;;;;13.28;3.70;;;;;;;12.69;63.58;100603.95;1745826;80;25641;-56
2021/10/16 10:24:54;;;;;;;16.57;3.85;;;;;;;12.66;63.62;100609.22;1756217;81;28084;-55
2021/10/16 10:27:24;;;;;;;11.75;3.55;;;;;;;12.59;63.54;100608.32;1770237;81;25805;-54
2021/10/16 10:29:53;;;;;;;11.97;4.65;;;;;;;12.58;63.63;100605.38;1756224;81;25661;-55
2021/10/16 10:32:25;;;;;;;8.90;3.55;;;;;;;12.56;63.87;100607.59;1776393;80;25630;-55
2021/10/16 10:34:56;;;;;;;15.80;3.80;;;;;;;12.53;63.53;100605.49;1755022;81;25533;-55
2021/10/16 10:39:08;;;;;;;11.75;3.70;;;;;;;12.53;62.37;100605.49;1860848;76;34672;-56
2021/10/16 10:41:35;;;;;;;12.80;3.47;;;;;;;12.36;63.06;100606.80;1785846;80;25433;-57
2021/10/16 10:44:04;;;;;;;14.55;3.80;;;;;;;12.38;63.57;100592.36;1791266;80;27648;-58
2021/10/16 10:46:31;;;;;;;14.83;4.12;;;;;;;12.54;64.08;100592.75;1791224;80;25648;-57
2021/10/16 10:49:09;;;;;;;10.20;4.75;;;;;;;12.75;64.46;100601.09;1791371;80;25698;-56
2021/10/16 10:51:38;;;;;;;11.38;3.67;;;;;;;12.96;64.75;100600.75;1789283;79;25623;-57
2021/10/16 10:54:21;;;;;;;9.58;3.02;;;;;;;13.18;63.83;100599.02;1791310;80;25628;-57
2021/10/16 10:56:57;;;;;;;9.93;3.77;;;;;;;13.27;62.84;100597.89;1784315;79;28102;-57
2021/10/16 10:59:24;;;;;;;10.70;3.55;;;;;;;13.51;62.51;100599.92;1791211;79;25504;-58
2021/10/16 11:02:03;;;;;;;11.18;3.55;;;;;;;13.76;62.27;100597.72;1791251;80;25662;-57
2021/10/16 11:04:45;;;;;;;11.38;4.65;;;;;;;13.83;60.89;100593.16;1728143;83;25648;-57
2021/10/16 11:07:16;;;;;;;15.00;3.90;;;;;;;13.77;60.08;100596.61;1728270;83;25621;-58
2021/10/16 11:09:44;;;;;;;13.10;3.67;;;;;;;13.71;60.38;100600.61;1728210;81;27392;-58
2021/10/16 11:12:13;;;;;;;12.93;4.05;;;;;;;13.61;59.81;100598.23;1728234;83;25476;-58
2021/10/16 11:14:43;;;;;;;12.47;4.10;;;;;;;13.41;58.70;100603.19;1727279;83;25633;-58
2021/10/16 11:17:14;;;;;;;10.53;4.12;;;;;;;13.41;58.70;100603.19;1728022;83;25625;-58
2021/10/16 11:19:55;;;;;;;11.80;4.95;;;;;;;13.24;59.60;100597.16;1728273;83;25446;-58
2021/10/16 11:22:40;;;;;;;14.38;4.17;;;;;;;13.15;59.53;100603.73;1728254;83;28062;-56
2021/10/16 11:25:08;;;;;;;10.10;3.45;;;;;;;12.97;59.73;100602.33;1727686;83;25709;-58
2021/10/16 11:27:35;;;;;;;13.22;4.15;;;;;;;12.86;60.11;100600.48;1728175;83;25630;-58
2021/10/16 11:30:17;;;;;;;15.35;4.03;;;;;;;12.84;60.24;100601.94;1728141;83;27298;-58
2021/10/16 11:32:44;;;;;;;23.83;4.75;;;;;;;12.73;59.66;100594.62;1728288;83;25608;-60